Time;durP1;ratioP1;P1;durP2;ratioP2;P2;SDS_P1;SDS_P2;PMS_P1;PMS_P2;Temp;Humidity;BMP_temperature;BMP_pressure;BME280_temperature;BME280_humidity;BME280_pressure;Samples;Min_cycle;Max_cycle;Signal;HPM_P1;HPM_P2
2022/02/07 00:01:01;;;;;;;7.72;4.28;;;;;;;9.42;48.45;98476.95;1781106;79;21532;-54
2022/02/07 00:03:41;;;;;;;6.85;4.55;;;;;;;9.33;48.31;98469.13;1785915;78;21054;-55
2022/02/07 00:06:00;;;;;;;4.72;4.03;;;;;;;9.39;48.69;98472.34;1782068;78;22469;-54
2022/02/07 00:08:26;;;;;;;4.80;4.00;;;;;;;9.21;49.44;98468.52;1793985;78;21908;-55
2022/02/07 00:10:53;;;;;;;6.25;3.83;;;;;;;9.38;49.05;98462.77;1787306;79;21439;-55
2022/02/07 00:13:21;;;;;;;5.25;4.25;;;;;;;9.51;48.67;98469.87;1789211;79;21130;-55
2022/02/07 00:15:48;;;;;;;4.80;4.05;;;;;;;9.47;48.54;98468.34;1781073;79;21502;-55
2022/02/07 00:18:16;;;;;;;5.95;4.75;;;;;;;9.48;48.59;98466.58;1784427;78;22485;-55
2022/02/07 00:20:44;;;;;;;5.37;4.00;;;;;;;9.31;48.33;98459.67;1787242;79;20921;-57
2022/02/07 00:23:11;;;;;;;5.72;3.90;;;;;;;9.54;49.04;98454.41;1785212;79;21385;-55
2022/02/07 00:25:40;;;;;;;4.80;4.03;;;;;;;9.69;48.55;98450.06;1794936;79;21501;-55
2022/02/07 00:28:06;;;;;;;4.80;4.30;;;;;;;9.64;48.67;98452.09;1791240;78;21431;-55
2022/02/07 00:30:33;;;;;;;6.85;3.90;;;;;;;9.59;48.73;98447.13;1783200;79;22422;-55
2022/02/07 00:33:00;;;;;;;7.17;4.08;;;;;;;9.53;48.93;98452.27;1785515;79;21597;-55
2022/02/07 00:35:26;;;;;;;5.70;4.23;;;;;;;9.67;48.93;98443.59;1778219;79;20997;-55
2022/02/07 00:37:56;;;;;;;8.28;4.25;;;;;;;9.75;48.15;98420.82;1782116;78;22134;-55
2022/02/07 00:42:58;;;;;;;5.95;4.33;;;;;;;9.54;48.13;98427.70;1784770;79;22709;-55
2022/02/07 00:48:12;;;;;;;4.58;3.83;;;;;;;9.59;48.53;98429.20;1689548;82;21052;-54
2022/02/07 00:50:41;;;;;;;4.72;4.00;;;;;;;9.47;48.91;98425.05;1682204;83;21591;-54
2022/02/07 00:53:13;;;;;;;4.35;3.95;;;;;;;9.72;48.05;98410.52;1681592;84;21443;-55
2022/02/07 00:55:41;;;;;;;5.90;4.30;;;;;;;9.73;48.16;98402.53;1682252;83;22621;-56
2022/02/07 00:58:08;;;;;;;6.37;4.37;;;;;;;9.75;48.22;98395.89;1681578;84;21423;-57
2022/02/07 01:00:36;;;;;;;4.53;3.98;;;;;;;9.79;48.31;98400.48;1683157;83;27408;-55
2022/02/07 01:03:02;;;;;;;6.83;3.93;;;;;;;9.84;48.93;98397.13;1683713;83;21525;-54
2022/02/07 01:05:30;;;;;;;6.45;4.22;;;;;;;9.93;49.29;98399.20;1686230;83;21482;-54
2022/02/07 01:07:59;;;;;;;4.78;3.98;;;;;;;9.96;47.63;98385.87;1682253;83;22810;-57
2022/02/07 01:10:35;;;;;;;6.37;4.22;;;;;;;9.97;48.15;98380.18;1681893;83;21415;-54
2022/02/07 01:51:58;;;;;;;7.53;5.08;;;;;;;9.74;48.66;98295.30;1676240;84;21495;-54
2022/02/07 01:54:19;;;;;;;6.53;4.78;;;;;;;9.72;48.79;98287.16;1634578;85;21662;-54
2022/02/07 01:56:39;;;;;;;5.62;4.85;;;;;;;9.68;48.66;98285.19;1677312;83;20981;-54
2022/02/07 01:59:06;;;;;;;7.00;5.30;;;;;;;9.56;49.08;98284.61;1674889;83;21554;-53
2022/02/07 02:01:37;;;;;;;6.72;4.97;;;;;;;9.67;49.57;98278.23;1680104;83;21941;-55
2022/02/07 02:04:06;;;;;;;5.95;5.05;;;;;;;9.74;48.57;98275.62;1677519;84;21423;-55
2022/02/07 02:06:34;;;;;;;6.53;5.03;;;;;;;9.66;48.68;98271.32;1679329;84;21162;-54
2022/02/07 02:09:04;;;;;;;5.80;4.72;;;;;;;9.62;48.76;98271.58;1677224;84;20867;-55
2022/02/07 02:11:35;;;;;;;7.83;4.65;;;;;;;9.48;49.12;98263.24;1679064;83;21367;-55
2022/02/07 02:16:57;;;;;;;7.20;5.05;;;;;;;9.72;49.05;98267.00;1677505;84;21545;-54
2022/02/07 02:22:42;;;;;;;6.58;4.85;;;;;;;9.59;48.49;98257.33;1670673;84;21390;-54
2022/02/07 02:33:16;;;;;;;7.15;5.50;;;;;;;9.64;48.61;98252.65;1651071;85;21348;-54
2022/02/07 02:37:55;;;;;;;6.87;4.65;;;;;;;9.55;49.28;98246.20;1630884;86;21449;-55
2022/02/07 02:45:42;;;;;;;5.92;4.80;;;;;;;9.69;48.88;98225.19;1629522;86;21577;-55
2022/02/07 02:48:23;;;;;;;7.35;4.72;;;;;;;9.62;49.08;98223.03;1616251;86;21464;-55
2022/02/07 02:50:47;;;;;;;9.10;5.85;;;;;;;9.53;49.00;98227.92;1603779;88;20965;-56
2022/02/07 02:53:14;;;;;;;5.45;4.70;;;;;;;9.48;48.99;98232.59;1615351;86;22786;-55
2022/02/07 02:55:43;;;;;;;8.15;5.40;;;;;;;9.67;49.48;98238.03;1615181;87;21293;-56
2022/02/07 02:58:13;;;;;;;5.15;4.60;;;;;;;9.70;48.39;98236.52;1612970;87;21034;-55
2022/02/07 03:00:45;;;;;;;6.75;5.42;;;;;;;9.66;48.65;98233.71;1607416;87;21010;-56
2022/02/07 03:03:15;;;;;;;4.65;4.08;;;;;;;9.67;48.80;98233.63;1618682;86;21517;-55
2022/02/07 03:05:44;;;;;;;4.62;4.10;;;;;;;9.67;48.98;98231.00;1611208;88;22611;-55
2022/02/07 03:08:13;;;;;;;4.85;4.25;;;;;;;9.76;48.94;98225.66;1629154;86;21361;-56
2022/02/07 03:10:53;;;;;;;7.33;4.45;;;;;;;9.89;48.41;98225.75;1610284;87;21512;-56
2022/02/07 03:18:23;;;;;;;6.22;4.47;;;;;;;9.75;48.58;98220.86;1612183;87;22408;-55
2022/02/07 03:20:50;;;;;;;4.87;3.87;;;;;;;9.79;48.66;98209.70;1611363;88;21609;-55
2022/02/07 03:23:16;;;;;;;7.70;4.20;;;;;;;9.78;49.42;98208.52;1614635;88;21561;-56
2022/02/07 03:25:43;;;;;;;4.83;4.27;;;;;;;9.78;48.65;98196.70;1613494;87;21428;-55
2022/02/07 03:28:10;;;;;;;5.45;4.75;;;;;;;9.86;47.84;98194.42;1613025;87;21770;-56
2022/02/07 03:30:40;;;;;;;5.85;5.00;;;;;;;9.77;47.86;98187.13;1614841;87;22802;-56
2022/02/07 03:33:07;;;;;;;6.22;4.15;;;;;;;9.73;47.86;98180.74;1610623;87;21509;-56
2022/02/07 03:35:35;;;;;;;5.22;4.22;;;;;;;9.63;48.56;98174.40;1612520;87;27911;-55
2022/02/07 03:38:03;;;;;;;6.35;4.47;;;;;;;9.91;48.03;98164.31;1613168;88;21444;-55
2022/02/07 03:40:29;;;;;;;5.10;4.10;;;;;;;10.08;48.44;98161.92;1615142;87;21468;-56
2022/02/07 03:42:56;;;;;;;4.83;4.28;;;;;;;10.06;48.56;98158.56;1612984;87;22488;-55
2022/02/07 03:45:23;;;;;;;5.55;4.72;;;;;;;9.97;48.66;98151.27;1608608;87;21439;-55
2022/02/07 03:47:52;;;;;;;7.03;4.45;;;;;;;9.96;48.24;98151.36;1620355;84;21032;-55
2022/02/07 03:50:21;;;;;;;4.15;3.65;;;;;;;10.05;48.62;98156.86;1623771;86;21506;-55
2022/02/07 03:52:52;;;;;;;5.42;4.65;;;;;;;10.11;48.89;98157.80;1652300;85;21518;-55
2022/02/07 03:55:19;;;;;;;6.20;4.00;;;;;;;10.03;47.69;98156.59;1675235;85;22539;-55
2022/02/07 03:57:46;;;;;;;6.35;4.03;;;;;;;9.94;48.15;98157.57;1674570;85;21530;-54
2022/02/07 04:00:14;;;;;;;4.87;4.17;;;;;;;9.92;48.18;98149.40;1674070;83;21378;-56
2022/02/07 04:02:44;;;;;;;6.17;4.12;;;;;;;9.97;48.37;98146.50;1664317;85;21874;-55
2022/02/07 04:07:54;;;;;;;5.95;4.80;;;;;;;10.10;48.46;98144.77;1666781;84;21586;-55
2022/02/07 04:10:23;;;;;;;;;;;;;;;10.00;48.46;98145.83;1674478;84;21515;-56
2022/02/07 04:12:59;;;;;;;8.43;4.90;;;;;;;9.90;48.25;98146.03;1666966;85;20214;-56
2022/02/07 04:15:22;;;;;;;5.37;4.30;;;;;;;9.82;48.50;98149.63;1679530;83;21463;-55
2022/02/07 04:17:56;;;;;;;;;;;;;;;9.74;48.44;98145.70;1675426;84;20931;-55
2022/02/07 04:20:19;;;;;;;7.40;4.10;;;;;;;9.86;48.27;98141.45;1673768;85;22747;-55
2022/02/07 04:22:48;;;;;;;5.15;4.30;;;;;;;9.92;48.25;98149.40;1672567;83;21413;-55
2022/02/07 04:25:25;;;;;;;5.75;4.72;;;;;;;9.85;48.19;98136.28;1670741;84;29567;-54
2022/02/07 04:28:00;;;;;;;7.28;4.62;;;;;;;9.80;48.75;98128.72;1668540;84;21516;-55
2022/02/07 04:30:29;;;;;;;7.97;4.60;;;;;;;9.77;48.18;98122.81;1674338;83;21498;-55
2022/02/07 04:32:56;;;;;;;7.28;4.00;;;;;;;9.75;48.76;98125.05;1676178;83;22801;-55
2022/02/07 04:35:22;;;;;;;5.27;4.10;;;;;;;9.85;48.52;98121.40;1684120;83;21375;-55
2022/02/07 04:37:49;;;;;;;5.00;3.98;;;;;;;9.85;47.67;98113.52;1674320;83;21578;-54
2022/02/07 04:40:16;;;;;;;8.48;4.30;;;;;;;9.83;47.94;98124.59;1671642;83;21509;-55
2022/02/07 04:42:44;;;;;;;5.78;4.25;;;;;;;9.73;48.21;98124.80;1672825;85;23993;-54
2022/02/07 04:48:12;;;;;;;4.87;4.15;;;;;;;9.72;48.97;98116.09;1676346;83;22035;-55
2022/02/07 04:50:33;;;;;;;5.15;3.95;;;;;;;9.62;49.30;98121.53;1671795;83;21515;-55
2022/02/07 05:00:42;;;;;;;4.78;4.25;;;;;;;9.33;54.26;98118.95;1674451;84;21490;-53
2022/02/07 05:03:13;;;;;;;6.17;4.50;;;;;;;9.35;53.97;98124.11;1666767;83;21389;-54
2022/02/07 05:13:48;;;;;;;6.35;4.80;;;;;;;9.30;59.80;98116.51;1670836;83;21578;-54
2022/02/07 05:16:26;;;;;;;7.15;5.65;;;;;;;9.40;59.09;98110.69;1672988;83;21601;-54
2022/02/07 05:18:57;;;;;;;8.50;6.53;;;;;;;9.32;59.32;98102.86;1643663;85;21614;-54
2022/02/07 05:21:40;;;;;;;14.98;11.10;;;;;;;9.25;58.26;98109.42;1651855;84;21597;-55
2022/02/07 05:24:12;;;;;;;17.87;10.63;;;;;;;9.45;59.45;98102.91;1659236;84;22722;-55
2022/02/07 05:26:40;;;;;;;26.87;14.38;;;;;;;9.45;56.34;98100.77;1635182;84;21468;-54
2022/02/07 05:29:09;;;;;;;13.95;8.93;;;;;;;9.48;56.30;98094.86;1659904;84;20898;-55
2022/02/07 05:31:47;;;;;;;14.28;8.83;;;;;;;9.43;56.45;98100.02;1674387;83;21554;-54
2022/02/07 05:34:16;;;;;;;7.58;6.67;;;;;;;9.57;56.30;98097.83;1667139;84;21505;-55
2022/02/07 05:36:46;;;;;;;7.92;5.90;;;;;;;9.68;56.48;98100.17;1673148;83;22679;-55
2022/02/07 05:39:19;;;;;;;9.75;7.53;;;;;;;9.65;56.45;98099.04;1675271;84;21000;-55
2022/02/07 05:42:03;;;;;;;8.53;7.10;;;;;;;9.68;56.65;98101.92;1670131;84;21554;-55
2022/02/07 05:44:47;;;;;;;6.40;5.37;;;;;;;9.77;56.58;98100.51;1668208;85;21387;-55
2022/02/07 05:47:24;;;;;;;7.78;5.03;;;;;;;9.84;55.86;98101.33;1610134;88;20889;-55
2022/02/07 05:49:59;;;;;;;8.20;4.70;;;;;;;9.85;55.40;98103.03;1671842;83;22556;-54
2022/02/07 05:52:35;;;;;;;5.78;4.53;;;;;;;9.83;55.51;98098.80;1684312;83;21468;-54
2022/02/07 05:55:07;;;;;;;5.35;4.42;;;;;;;9.84;55.63;98101.33;1671993;82;21505;-55
2022/02/07 05:57:45;;;;;;;6.80;4.90;;;;;;;9.88;55.63;98101.97;1674074;83;21419;-55
2022/02/07 06:00:16;;;;;;;6.35;5.30;;;;;;;9.97;55.34;98103.17;1672176;84;21587;-56
2022/02/07 06:02:43;;;;;;;6.70;5.00;;;;;;;9.90;55.30;98111.91;1680174;83;22496;-55
2022/02/07 06:05:25;;;;;;;7.95;4.78;;;;;;;9.85;55.53;98111.34;1674099;83;22236;-55
2022/02/07 06:07:51;;;;;;;13.70;9.13;;;;;;;9.99;55.93;98108.69;1671496;85;21404;-55
2022/02/07 06:10:20;;;;;;;12.53;8.05;;;;;;;10.04;56.40;98105.30;1672733;84;22177;-55
2022/02/07 06:12:48;;;;;;;12.00;7.78;;;;;;;9.87;55.85;98106.39;1640469;85;21145;-55
2022/02/07 06:15:17;;;;;;;10.98;7.05;;;;;;;9.88;55.99;98104.59;1674064;84;26171;-55
2022/02/07 06:17:50;;;;;;;8.25;5.40;;;;;;;9.84;56.04;98109.68;1669000;85;21351;-55
2022/02/07 06:20:15;;;;;;;6.03;4.30;;;;;;;9.97;55.90;98098.76;1671825;85;21639;-55
2022/02/07 06:22:45;;;;;;;6.28;4.75;;;;;;;10.13;57.79;98097.27;1665487;83;21686;-55
2022/02/07 06:25:12;;;;;;;6.08;4.50;;;;;;;10.18;59.20;98081.23;1672365;83;21541;-55
2022/02/07 06:27:39;;;;;;;9.05;5.22;;;;;;;10.00;57.92;98087.20;1672601;85;22447;-55
2022/02/07 06:30:08;;;;;;;6.80;5.15;;;;;;;10.05;59.95;98077.25;1667217;84;20956;-56
2022/02/07 06:32:40;;;;;;;13.85;8.50;;;;;;;10.07;58.83;98072.25;1671214;85;21061;-55
2022/02/07 06:35:08;;;;;;;9.63;7.42;;;;;;;10.22;59.26;98062.52;1671937;85;21570;-55
2022/02/07 06:37:38;;;;;;;7.78;5.37;;;;;;;10.20;59.13;98053.91;1672618;84;21594;-55
2022/02/07 06:40:07;;;;;;;7.55;5.90;;;;;;;10.13;59.04;98055.25;1674049;83;22478;-55
2022/02/07 06:42:34;;;;;;;10.80;9.70;;;;;;;10.13;59.73;98060.06;1669772;85;21567;-55
2022/02/07 06:45:01;;;;;;;11.70;8.18;;;;;;;10.22;59.23;98053.33;1673364;84;21439;-55
2022/02/07 06:47:28;;;;;;;9.63;5.40;;;;;;;10.33;58.93;98069.25;1674127;85;21501;-56
2022/02/07 06:49:55;;;;;;;7.22;4.95;;;;;;;10.24;57.69;98076.88;1654950;85;21540;-55
2022/02/07 06:52:23;;;;;;;8.65;5.40;;;;;;;10.18;57.23;98078.60;1650374;85;22467;-55
2022/02/07 06:54:50;;;;;;;;;;;;;;;10.08;57.71;98086.25;1653514;86;21435;-56
2022/02/07 06:57:20;;;;;;;8.28;4.40;;;;;;;10.28;58.23;98086.23;1653228;85;20465;-55
2022/02/07 06:59:48;;;;;;;6.95;4.50;;;;;;;10.34;55.25;98084.56;1649828;85;21444;-55
2022/02/07 07:02:16;;;;;;;8.18;5.30;;;;;;;10.16;54.47;98087.89;1649339;86;21414;-56
2022/02/07 07:04:43;;;;;;;9.18;5.40;;;;;;;10.09;54.27;98093.17;1643019;85;22714;-55
2022/02/07 07:07:11;;;;;;;;;;;;;;;10.20;53.96;98081.97;1650320;85;21485;-54
2022/02/07 07:09:38;;;;;;;8.15;5.25;;;;;;;10.04;53.26;98088.23;1647634;85;20392;-56
2022/02/07 07:12:10;;;;;;;7.10;4.30;;;;;;;10.08;53.28;98088.39;1647721;85;21688;-56
2022/02/07 07:14:51;;;;;;;7.08;4.90;;;;;;;10.10;55.22;98085.20;1647758;84;21402;-55
2022/02/07 07:17:13;;;;;;;8.63;4.75;;;;;;;9.58;54.68;98085.93;1615201;87;22442;-55
2022/02/07 07:19:41;;;;;;;5.95;4.67;;;;;;;9.96;54.69;98081.30;1610372;87;21533;-54
2022/02/07 07:22:08;;;;;;;7.92;5.20;;;;;;;9.84;54.89;98076.87;1602180;88;21486;-55
2022/02/07 07:24:37;;;;;;;8.35;5.03;;;;;;;10.08;56.19;98074.44;1603847;88;21455;-55
2022/02/07 07:27:06;;;;;;;;;;;;;;;10.07;56.31;98068.31;1608346;88;21403;-54
2022/02/07 07:29:38;;;;;;;8.65;5.05;;;;;;;10.21;56.16;98064.80;1618480;87;22467;-54
2022/02/07 07:32:05;;;;;;;7.33;5.30;;;;;;;10.31;56.05;98055.86;1630468;86;21451;-55
2022/02/07 07:34:35;;;;;;;7.75;5.25;;;;;;;10.27;55.50;98051.25;1611994;87;21581;-55
2022/02/07 07:37:05;;;;;;;6.35;5.20;;;;;;;10.24;55.95;98048.81;1618025;86;21501;-55
2022/02/07 07:39:33;;;;;;;7.55;4.70;;;;;;;10.37;56.68;98050.19;1618286;86;21573;-54
2022/02/07 07:42:03;;;;;;;6.30;5.70;;;;;;;10.53;56.40;98043.44;1618929;86;22710;-55
2022/02/07 07:44:38;;;;;;;6.65;5.40;;;;;;;10.51;55.67;98040.08;1578330;86;21473;-55
2022/02/07 07:47:11;;;;;;;9.55;5.87;;;;;;;10.46;55.23;98044.31;1615270;88;21502;-54
2022/02/07 07:49:50;;;;;;;6.20;4.62;;;;;;;10.43;54.88;98049.77;1629638;86;20955;-54
2022/02/07 07:53:27;;;;;;;6.55;4.92;;;;;;;10.43;54.94;98048.93;1633141;86;21435;-55
2022/02/07 08:03:16;;;;;;;7.37;4.83;;;;;;;10.52;54.09;98054.40;1637144;85;22229;-56
2022/02/07 08:05:52;;;;;;;6.22;4.80;;;;;;;10.61;53.48;98054.26;1634485;85;21420;-55
2022/02/07 08:08:29;;;;;;;7.83;6.03;;;;;;;10.55;53.75;98049.87;1636222;85;23188;-55
2022/02/07 08:11:01;;;;;;;7.12;5.75;;;;;;;10.55;53.69;98049.42;1633099;85;21488;-55
2022/02/07 08:13:20;;;;;;;8.13;5.50;;;;;;;10.57;53.73;98047.53;1637991;85;21015;-55
2022/02/07 08:15:49;;;;;;;10.05;6.55;;;;;;;10.69;53.81;98053.25;1633705;85;21552;-55
2022/02/07 08:18:16;;;;;;;12.23;7.95;;;;;;;10.67;52.97;98042.48;1634276;85;21517;-55
2022/02/07 08:20:43;;;;;;;7.95;5.80;;;;;;;10.64;52.82;98046.62;1634017;85;22500;-57
2022/02/07 08:23:10;;;;;;;7.95;5.87;;;;;;;10.50;56.06;98044.47;1633555;85;21468;-55
2022/02/07 08:25:38;;;;;;;10.38;6.80;;;;;;;10.45;60.83;98049.22;1633128;85;21050;-55
2022/02/07 08:28:05;;;;;;;6.87;5.10;;;;;;;10.54;54.29;98042.95;1635344;85;21529;-55
2022/02/07 08:30:33;;;;;;;10.88;5.92;;;;;;;10.66;53.12;98045.59;1635088;85;21458;-55
2022/02/07 08:33:01;;;;;;;5.97;5.20;;;;;;;10.62;52.69;98044.58;1631225;86;22525;-57
2022/02/07 08:35:27;;;;;;;9.63;5.20;;;;;;;10.52;52.55;98034.69;1639814;85;21430;-55
2022/02/07 08:37:56;;;;;;;8.55;5.92;;;;;;;10.66;52.75;98036.39;1636050;85;21543;-55
2022/02/07 08:40:23;;;;;;;8.70;5.78;;;;;;;10.78;52.32;98036.50;1637764;85;21553;-51
2022/02/07 08:42:50;;;;;;;;;;;;;;;10.54;51.71;98029.33;1638296;85;21624;-54
2022/02/07 08:46:58;;;;;;;5.08;4.08;;;;;;;8.81;58.14;98034.33;1834805;75;22794;-55
2022/02/07 08:49:26;;;;;;;6.65;4.72;;;;;;;10.19;54.03;98040.42;1761132;79;21342;-55
2022/02/07 08:51:54;;;;;;;5.87;4.58;;;;;;;10.41;52.69;98029.80;1807966;77;22508;-55
2022/02/07 08:54:25;;;;;;;7.05;5.03;;;;;;;10.63;52.36;98026.08;1800729;77;20976;-56
2022/02/07 08:57:10;;;;;;;6.83;4.42;;;;;;;10.66;52.80;98021.07;1804361;77;21450;-55
2022/02/07 08:59:35;;;;;;;6.33;4.42;;;;;;;10.56;52.64;98018.72;1794151;77;27732;-54
2022/02/07 09:02:13;;;;;;;6.40;4.62;;;;;;;10.54;52.20;98021.93;1805421;77;21462;-56
2022/02/07 09:07:06;;;;;;;9.20;5.33;;;;;;;10.42;51.87;98011.31;1800077;77;21097;-56
2022/02/07 09:09:28;;;;;;;18.67;13.32;;;;;;;10.47;51.85;98007.91;1798732;77;21549;-55
2022/02/07 09:11:55;;;;;;;170.47;157.43;;;;;;;10.50;52.05;98008.99;1805338;77;21640;-56
2022/02/07 09:14:23;;;;;;;37.60;33.67;;;;;;;10.62;51.66;98004.67;1798040;77;21179;-56
2022/02/07 09:16:53;;;;;;;11.45;8.98;;;;;;;10.74;51.25;98006.95;1793670;77;22924;-57
2022/02/07 09:19:20;;;;;;;18.45;11.85;;;;;;;10.78;51.41;98010.20;1806473;77;22501;-56
2022/02/07 09:21:48;;;;;;;8.50;5.67;;;;;;;10.79;51.56;98011.87;1799574;77;21466;-54
2022/02/07 09:24:15;;;;;;;8.05;5.40;;;;;;;10.71;51.24;98011.92;1793034;77;21505;-55
2022/02/07 09:26:42;;;;;;;12.35;9.70;;;;;;;10.74;50.74;98011.34;1791850;77;21415;-54
2022/02/07 09:29:09;;;;;;;15.45;12.05;;;;;;;10.80;50.77;98001.73;1797018;77;22528;-54
2022/02/07 09:31:36;;;;;;;11.80;7.80;;;;;;;10.78;50.88;98007.09;1805518;77;21014;-54
2022/02/07 09:34:03;;;;;;;19.35;11.50;;;;;;;10.78;50.99;98001.84;1793097;78;21397;-54
2022/02/07 09:36:30;;;;;;;247.78;108.80;;;;;;;10.63;100.00;98006.84;1803473;77;21335;-54
2022/02/07 09:38:56;;;;;;;27.50;14.60;;;;;;;10.83;95.42;98008.08;1805951;77;21466;-55
2022/02/07 09:41:25;;;;;;;16.27;13.78;;;;;;;10.93;55.12;97994.66;1800460;77;22561;-56
2022/02/07 09:43:52;;;;;;;64.40;29.48;;;;;;;11.02;53.46;97996.65;1801225;77;21323;-54
2022/02/07 09:46:22;;;;;;;53.55;27.48;;;;;;;11.02;52.94;97996.65;1802532;78;21386;-55
2022/02/07 09:48:53;;;;;;;27.98;21.33;;;;;;;11.13;52.66;97999.81;1799074;78;21007;-54
2022/02/07 09:51:20;;;;;;;161.88;69.50;;;;;;;11.21;51.75;97997.49;1806345;77;20908;-56
2022/02/07 09:53:47;;;;;;;20.92;11.12;;;;;;;11.35;52.15;98007.50;1803207;78;22797;-55
2022/02/07 09:56:15;;;;;;;32.90;17.77;;;;;;;11.28;51.49;98004.45;1800619;78;21584;-56
2022/02/07 09:58:42;;;;;;;59.35;34.85;;;;;;;11.26;50.78;98019.06;1798859;78;28085;-55
2022/02/07 10:01:14;;;;;;;152.93;59.95;;;;;;;11.17;51.41;98010.95;1803260;77;21398;-55
2022/02/07 10:03:53;;;;;;;38.35;18.05;;;;;;;11.25;51.06;98021.31;1807588;77;21484;-55
2022/02/07 10:06:29;;;;;;;131.30;80.15;;;;;;;11.41;51.15;98013.14;1806169;77;22587;-56
2022/02/07 10:11:42;;;;;;;38.40;18.55;;;;;;;11.19;50.54;98028.33;1803421;78;21374;-55
2022/02/07 10:14:06;;;;;;;213.75;142.75;;;;;;;11.18;50.52;98027.95;1779354;78;20957;-54
2022/02/07 10:16:45;;;;;;;70.70;30.40;;;;;;;10.97;50.26;98034.25;1735263;80;21488;-54
2022/02/07 10:19:28;;;;;;;85.57;39.67;;;;;;;11.01;50.40;98033.57;1738122;81;22552;-54
2022/02/07 10:22:08;;;;;;;156.70;69.27;;;;;;;10.80;50.13;98035.91;1728172;81;21544;-55
2022/02/07 10:38:37;;;;;;;31.82;17.77;;;;;;;10.58;50.02;98031.28;1736524;81;21538;-55
2022/02/07 10:48:43;;;;;;;17.65;11.22;;;;;;;10.54;50.87;98037.22;1741312;81;21570;-56
2022/02/07 10:51:20;;;;;;;17.62;10.48;;;;;;;10.50;51.32;98044.47;1760259;80;21426;-57
2022/02/07 10:53:52;;;;;;;23.92;19.05;;;;;;;10.31;56.08;98042.72;1744255;79;21420;-55
2022/02/07 10:56:26;;;;;;;26.25;13.78;;;;;;;10.37;58.80;98040.98;1762615;79;21561;-53
2022/02/07 10:58:54;;;;;;;11.93;8.23;;;;;;;10.36;58.19;98041.09;1736694;80;22491;-55
2022/02/07 11:01:38;;;;;;;8.53;6.03;;;;;;;10.49;58.62;98034.05;1741263;80;21494;-55
2022/02/07 11:03:57;;;;;;;8.65;6.03;;;;;;;10.38;59.40;98034.80;1729026;82;20938;-56
2022/02/07 11:06:32;;;;;;;10.85;6.78;;;;;;;10.41;55.05;98027.17;1731560;80;21487;-56
2022/02/07 11:19:42;;;;;;;15.48;11.00;;;;;;;10.18;56.10;97991.45;1741143;80;21427;-53
2022/02/07 11:27:40;;;;;;;14.85;9.65;;;;;;;10.26;55.12;97973.86;1762089;80;21528;-53
2022/02/07 11:30:11;;;;;;;12.58;9.80;;;;;;;10.28;55.15;97959.69;1804042;77;21552;-54
2022/02/07 11:32:51;;;;;;;12.98;10.23;;;;;;;10.31;55.64;97946.84;1808106;77;21546;-54
2022/02/07 11:35:21;;;;;;;13.80;8.48;;;;;;;10.49;54.90;97940.33;1805520;78;20955;-55
2022/02/07 11:38:02;;;;;;;9.90;7.72;;;;;;;10.64;55.14;97923.09;1773107;77;22407;-54
2022/02/07 11:40:42;;;;;;;14.20;11.38;;;;;;;10.60;55.34;97921.16;1728625;80;21403;-53
2022/02/07 11:43:20;;;;;;;10.78;6.60;;;;;;;10.65;55.04;97935.30;1761475;79;21506;-53
2022/02/07 11:46:09;;;;;;;9.70;7.22;;;;;;;10.76;54.65;97937.19;1765635;79;21570;-55
2022/02/07 11:48:51;;;;;;;9.03;6.78;;;;;;;10.81;54.83;97931.10;1778277;79;21418;-54
2022/02/07 11:51:30;;;;;;;9.10;5.72;;;;;;;10.79;54.44;97933.00;1779607;78;22509;-54
2022/02/07 11:54:00;;;;;;;35.68;19.12;;;;;;;10.78;54.45;97930.03;1761880;78;21478;-54
2022/02/07 11:56:44;;;;;;;14.35;9.60;;;;;;;10.94;55.00;97931.08;1748158;80;21460;-54
2022/02/07 11:59:28;;;;;;;17.80;14.28;;;;;;;11.12;54.49;97944.23;1746703;81;21521;-54
2022/02/07 12:02:16;;;;;;;28.67;16.95;;;;;;;11.13;54.54;97947.20;1745105;81;21102;-52
2022/02/07 12:04:42;;;;;;;26.15;13.83;;;;;;;11.21;54.54;97949.31;1743161;81;22480;-54
2022/02/07 12:07:19;;;;;;;13.68;7.42;;;;;;;11.28;54.11;97963.22;1744633;80;20993;-53
2022/02/07 12:12:47;;;;;;;25.57;14.13;;;;;;;11.25;52.47;97980.53;1715222;81;21493;-53
2022/02/07 12:15:34;;;;;;;11.95;8.90;;;;;;;11.10;52.65;97993.47;1713730;81;21619;-54
2022/02/07 12:18:14;;;;;;;10.87;6.33;;;;;;;11.39;53.51;98001.89;1704569;81;22464;-53
2022/02/07 12:20:45;;;;;;;7.55;5.53;;;;;;;11.91;52.79;98001.71;1719122;81;21506;-55
2022/02/07 12:23:18;;;;;;;11.18;7.35;;;;;;;12.70;52.12;98009.30;1717324;82;21585;-55
2022/02/07 12:25:55;;;;;;;11.40;6.78;;;;;;;12.97;49.89;98013.38;1720243;81;20934;-53
2022/02/07 12:28:42;;;;;;;9.85;6.53;;;;;;;12.97;48.46;98018.66;1720437;81;20990;-55
2022/02/07 12:33:38;;;;;;;7.83;5.90;;;;;;;12.77;47.99;98008.33;1721739;82;21557;-53
2022/02/07 12:36:06;;;;;;;8.58;5.70;;;;;;;12.89;49.11;98013.16;1719314;81;21439;-53
2022/02/07 12:38:37;;;;;;;7.15;5.55;;;;;;;13.03;49.39;97999.24;1719639;81;21523;-55
2022/02/07 12:41:11;;;;;;;9.33;6.05;;;;;;;13.23;48.04;98006.05;1722338;81;21478;-54
2022/02/07 12:43:40;;;;;;;6.95;5.90;;;;;;;13.36;48.51;98008.58;1717073;81;22536;-55
2022/02/07 12:46:09;;;;;;;8.15;5.90;;;;;;;13.31;48.10;98000.19;1716535;81;21712;-55
2022/02/07 12:48:40;;;;;;;8.58;5.30;;;;;;;13.25;47.96;98002.80;1713667;81;21495;-52
2022/02/07 12:51:04;;;;;;;7.95;5.72;;;;;;;13.03;48.12;97992.64;1713791;81;21484;-55
2022/02/07 12:53:31;;;;;;;8.55;5.83;;;;;;;12.94;47.85;97989.41;1716811;81;21447;-54
2022/02/07 12:56:01;;;;;;;6.80;5.72;;;;;;;12.93;48.77;97985.57;1717558;81;22511;-54
2022/02/07 12:58:37;;;;;;;8.00;5.50;;;;;;;12.90;49.23;97985.80;1766651;79;21467;-53
2022/02/07 13:01:21;;;;;;;9.23;6.12;;;;;;;13.01;47.69;97991.07;1765107;79;21577;-54
2022/02/07 13:03:58;;;;;;;7.12;5.45;;;;;;;13.17;48.23;97994.17;1761519;79;21528;-54
2022/02/07 13:06:35;;;;;;;7.55;5.60;;;;;;;13.15;48.40;98000.55;1767460;80;21474;-53
2022/02/07 13:09:12;;;;;;;8.55;5.78;;;;;;;13.16;48.54;97997.77;1763945;79;22497;-54
2022/02/07 13:11:45;;;;;;;9.15;5.60;;;;;;;13.21;48.22;98002.69;1724654;81;29507;-54
2022/02/07 13:14:08;;;;;;;6.40;5.03;;;;;;;13.37;48.62;98006.28;1763690;79;21459;-53
2022/02/07 13:16:35;;;;;;;8.15;5.97;;;;;;;13.36;48.62;98002.81;1763148;79;21548;-54
2022/02/07 13:19:13;;;;;;;7.67;5.40;;;;;;;13.46;48.07;98013.47;1760778;79;21522;-56
2022/02/07 13:21:43;;;;;;;10.10;6.10;;;;;;;13.31;48.04;98016.02;1765456;80;22458;-54
2022/02/07 13:24:14;;;;;;;8.85;6.22;;;;;;;13.33;48.48;98022.02;1767049;80;21486;-54
2022/02/07 13:26:51;;;;;;;8.28;6.00;;;;;;;13.31;48.00;98022.62;1768521;79;21430;-54
2022/02/07 13:29:30;;;;;;;7.35;4.83;;;;;;;13.31;49.42;98034.00;1765774;79;21488;-53
2022/02/07 13:32:05;;;;;;;5.90;4.95;;;;;;;13.36;49.42;98034.98;1762812;79;20897;-54
2022/02/07 13:34:36;;;;;;;9.83;5.37;;;;;;;13.47;48.57;98023.08;1767105;80;22485;-53
2022/02/07 13:37:17;;;;;;;9.33;5.45;;;;;;;13.45;48.74;98027.64;1765850;79;21443;-53
2022/02/07 13:40:06;;;;;;;8.83;5.25;;;;;;;13.29;47.85;98026.66;1770782;79;21056;-54
2022/02/07 13:42:42;;;;;;;7.87;5.65;;;;;;;13.21;48.31;98025.95;1765916;79;20905;-57
2022/02/07 13:45:21;;;;;;;7.47;5.17;;;;;;;13.12;49.46;98030.64;1766229;79;21410;-54
2022/02/07 13:47:54;;;;;;;5.70;4.97;;;;;;;13.04;48.95;98028.61;1768122;79;21615;-54
2022/02/07 13:50:24;;;;;;;9.80;5.62;;;;;;;13.13;49.31;98014.31;1731491;81;21371;-54
2022/02/07 13:52:54;;;;;;;6.50;5.03;;;;;;;13.12;49.11;98017.94;1762077;79;21374;-54
2022/02/07 13:55:28;;;;;;;6.10;5.40;;;;;;;12.99;48.60;98019.37;1768066;79;21581;-54
2022/02/07 13:58:11;;;;;;;9.00;5.85;;;;;;;12.81;50.09;98026.94;1769103;79;21517;-54
2022/02/07 14:00:53;;;;;;;5.92;4.87;;;;;;;12.73;50.37;98022.23;1731685;81;22495;-53
2022/02/07 14:03:31;;;;;;;8.33;5.25;;;;;;;12.65;50.86;98022.00;1758512;80;21446;-53
2022/02/07 14:06:06;;;;;;;8.08;5.25;;;;;;;12.73;49.89;98028.83;1765726;79;21395;-53
2022/02/07 14:08:42;;;;;;;6.45;5.80;;;;;;;12.73;50.35;98026.67;1725024;81;21483;-53
2022/02/07 14:11:11;;;;;;;7.95;6.40;;;;;;;12.72;50.70;98027.16;1764727;79;21545;-53
2022/02/07 14:13:39;;;;;;;6.08;5.47;;;;;;;12.59;51.17;98030.39;1765786;79;22508;-53
2022/02/07 14:16:08;;;;;;;8.13;5.97;;;;;;;12.49;51.10;98033.34;1769863;79;21542;-53
2022/02/07 14:18:37;;;;;;;7.37;6.00;;;;;;;12.27;51.10;98033.19;1767407;79;21453;-53
2022/02/07 14:21:09;;;;;;;9.43;6.37;;;;;;;12.24;50.55;98028.62;1730523;79;21447;-53